createdAt,value
2022-08-27T00:00:55.299Z,12.13
2022-08-27T00:03:24.611Z,8.80
2022-08-27T00:05:53.612Z,11.75
2022-08-27T00:10:51.404Z,11.65
2022-08-27T00:15:50.887Z,8.63
2022-08-27T00:18:22.899Z,10.45
2022-08-27T00:20:53.234Z,11.40
2022-08-27T00:23:22.553Z,11.50
2022-08-27T00:25:53.565Z,10.85
2022-08-27T00:28:22.873Z,11.48
2022-08-27T00:30:53.485Z,11.05
2022-08-27T00:33:23.016Z,8.48
2022-08-27T00:35:52.555Z,10.25
2022-08-27T00:38:22.558Z,12.38
2022-08-27T00:40:52.018Z,11.02
2022-08-27T00:43:23.385Z,7.50
2022-08-27T00:45:55.962Z,11.15
2022-08-27T00:48:34.233Z,13.05
2022-08-27T00:51:04.106Z,13.23
2022-08-27T00:53:36.298Z,11.02
2022-08-27T00:56:07.620Z,11.35
2022-08-27T00:58:38.610Z,9.50
2022-08-27T01:01:10.516Z,9.48
2022-08-27T01:03:39.876Z,9.48
2022-08-27T01:06:12.232Z,8.30
2022-08-27T01:08:47.950Z,11.38
2022-08-27T01:11:17.294Z,11.27
2022-08-27T01:16:33.893Z,9.15
2022-08-27T01:19:03.417Z,10.55
2022-08-27T01:21:35.535Z,10.32
2022-08-27T01:24:07.613Z,10.80
2022-08-27T01:26:38.803Z,8.30
2022-08-27T01:29:08.082Z,10.32
2022-08-27T01:31:37.480Z,10.10
2022-08-27T01:34:07.942Z,10.27
2022-08-27T01:36:37.182Z,12.48
2022-08-27T01:39:06.717Z,8.88
2022-08-27T01:41:36.071Z,9.30
2022-08-27T01:44:08.294Z,10.05
2022-08-27T01:46:37.585Z,10.02
2022-08-27T01:49:06.682Z,7.50
2022-08-27T01:54:04.529Z,8.80
2022-08-27T01:59:02.217Z,8.35
2022-08-27T02:04:01.488Z,8.68
2022-08-27T02:06:30.750Z,14.13
2022-08-27T02:11:29.696Z,9.68
2022-08-27T02:13:58.740Z,13.10
2022-08-27T02:21:27.638Z,9.27
2022-08-27T02:23:57.095Z,11.23
2022-08-27T02:26:27.832Z,8.80
2022-08-27T02:28:56.969Z,10.45
2022-08-27T02:33:55.349Z,11.85
2022-08-27T02:36:24.745Z,10.25
2022-08-27T02:38:56.219Z,11.65
2022-08-27T02:41:25.522Z,8.70
2022-08-27T02:43:54.497Z,8.45
2022-08-27T02:46:23.656Z,10.90
2022-08-27T02:48:53.050Z,9.90
2022-08-27T02:51:22.309Z,13.32
2022-08-27T02:53:52.776Z,10.50
2022-08-27T02:56:23.594Z,9.05
2022-08-27T02:58:52.974Z,9.07
2022-08-27T03:01:22.492Z,10.48
2022-08-27T03:03:51.994Z,9.48
2022-08-27T03:06:21.112Z,9.32
2022-08-27T03:11:24.318Z,8.93
2022-08-27T03:13:53.742Z,9.02
2022-08-27T03:16:23.049Z,9.52
2022-08-27T03:18:51.712Z,8.90
2022-08-27T03:21:21.983Z,7.93
2022-08-27T03:23:51.426Z,9.63
2022-08-27T03:26:20.940Z,9.27
2022-08-27T03:28:51.806Z,10.35
2022-08-27T03:31:27.238Z,10.25
2022-08-27T03:33:57.783Z,9.90
2022-08-27T03:36:27.270Z,11.48
2022-08-27T03:38:56.427Z,9.63
2022-08-27T03:41:45.469Z,7.45
2022-08-27T03:44:21.313Z,8.73
2022-08-27T03:46:51.447Z,9.60
2022-08-27T03:49:21.351Z,9.68
2022-08-27T03:51:50.969Z,13.15
2022-08-27T03:54:20.562Z,11.52
2022-08-27T03:56:50.016Z,9.07
2022-08-27T03:59:21.206Z,11.05
2022-08-27T04:01:50.850Z,10.65
2022-08-27T04:04:20.080Z,10.15
2022-08-27T04:06:49.282Z,9.13
2022-08-27T04:11:47.522Z,10.02
2022-08-27T04:14:27.371Z,9.20
2022-08-27T04:16:57.639Z,10.40
2022-08-27T04:19:28.654Z,12.75
2022-08-27T04:22:02.092Z,12.13
2022-08-27T04:24:31.757Z,13.38
2022-08-27T04:27:01.024Z,9.75
2022-08-27T04:29:32.022Z,13.40
2022-08-27T04:32:01.792Z,11.93
2022-08-27T04:34:31.117Z,10.95
2022-08-27T04:37:00.576Z,9.15
2022-08-27T04:39:30.167Z,10.98
2022-08-27T04:42:00.508Z,9.65
2022-08-27T04:44:31.354Z,10.23
2022-08-27T04:47:02.818Z,13.75
2022-08-27T04:49:33.379Z,9.93
2022-08-27T04:52:03.168Z,15.30
2022-08-27T04:57:03.024Z,9.05
2022-08-27T04:59:32.776Z,14.63
2022-08-27T05:02:04.569Z,11.82
2022-08-27T05:04:34.222Z,10.43
2022-08-27T05:07:03.630Z,10.10
2022-08-27T05:09:33.079Z,11.70
2022-08-27T05:12:02.475Z,10.23
2022-08-27T05:14:32.920Z,8.73
2022-08-27T05:17:03.808Z,11.95
2022-08-27T05:19:33.257Z,12.40
2022-08-27T05:22:02.322Z,15.35
2022-08-27T05:24:32.648Z,11.60
2022-08-27T05:27:01.893Z,12.68
2022-08-27T05:29:31.921Z,12.65
2022-08-27T05:32:00.925Z,14.13
2022-08-27T05:34:32.758Z,11.13
2022-08-27T05:37:02.037Z,13.27
2022-08-27T05:39:31.443Z,10.93
2022-08-27T05:42:00.746Z,11.38
2022-08-27T05:44:45.010Z,11.55
2022-08-27T05:47:14.779Z,14.32
2022-08-27T05:49:45.738Z,13.27
2022-08-27T05:52:15.128Z,13.73
2022-08-27T05:54:44.141Z,14.93
2022-08-27T06:00:00.177Z,14.27
2022-08-27T06:02:29.879Z,13.38
2022-08-27T06:05:00.793Z,15.32
2022-08-27T06:07:30.207Z,13.30
2022-08-27T06:09:59.529Z,14.68
2022-08-27T06:12:29.842Z,11.93
2022-08-27T06:14:59.144Z,15.48
2022-08-27T06:17:28.301Z,12.68
2022-08-27T06:19:57.441Z,12.65
2022-08-27T06:22:27.774Z,13.43
2022-08-27T06:24:57.447Z,12.95
2022-08-27T06:27:26.419Z,12.82
2022-08-27T06:29:57.719Z,15.77
2022-08-27T06:32:27.219Z,12.30
2022-08-27T06:34:58.323Z,14.10
2022-08-27T06:37:29.488Z,15.18
2022-08-27T06:39:58.610Z,12.18
2022-08-27T06:42:27.690Z,12.48
2022-08-27T06:44:56.706Z,11.55
2022-08-27T06:49:54.012Z,11.48
2022-08-27T06:52:23.056Z,13.63
2022-08-27T06:57:24.899Z,10.95
2022-08-27T06:59:54.231Z,13.13
2022-08-27T07:02:23.066Z,12.98
2022-08-27T07:07:31.854Z,16.75
2022-08-27T07:10:06.208Z,12.80
2022-08-27T07:12:36.467Z,12.80
2022-08-27T07:15:06.432Z,13.23
2022-08-27T07:17:35.518Z,12.98
2022-08-27T07:20:06.614Z,19.52
2022-08-27T07:22:35.379Z,11.55
2022-08-27T07:25:04.572Z,10.65
2022-08-27T07:27:33.704Z,16.83
2022-08-27T07:30:04.950Z,13.60
2022-08-27T07:32:33.906Z,10.55
2022-08-27T07:35:03.299Z,15.10
2022-08-27T07:37:35.345Z,14.23
2022-08-27T07:40:06.289Z,10.05
2022-08-27T07:42:52.943Z,12.00
2022-08-27T07:45:23.420Z,14.18
2022-08-27T07:47:52.640Z,10.40
2022-08-27T07:50:23.796Z,13.13
2022-08-27T07:52:53.794Z,11.95
2022-08-27T07:55:25.193Z,10.45
2022-08-27T07:57:54.834Z,11.20
2022-08-27T08:00:25.447Z,14.77
2022-08-27T08:02:54.585Z,13.00
2022-08-27T08:05:23.662Z,19.90
2022-08-27T08:07:53.469Z,19.95
2022-08-27T08:10:23.657Z,18.25
2022-08-27T08:12:53.099Z,19.33
2022-08-27T08:15:22.707Z,19.33
2022-08-27T08:17:54.388Z,19.95
2022-08-27T08:20:35.923Z,17.70
2022-08-27T08:23:13.135Z,17.27
2022-08-27T08:25:43.213Z,21.35
2022-08-27T08:28:12.687Z,21.67
2022-08-27T08:30:44.451Z,16.00
2022-08-27T08:33:15.238Z,16.67
2022-08-27T08:35:44.226Z,23.88
2022-08-27T08:38:13.321Z,22.85
2022-08-27T08:40:43.713Z,27.80
2022-08-27T08:43:26.654Z,29.20
2022-08-27T08:45:56.654Z,22.40
2022-08-27T08:48:29.869Z,21.52
2022-08-27T08:51:01.749Z,22.08
2022-08-27T08:53:38.453Z,21.05
2022-08-27T08:56:11.644Z,15.88
2022-08-27T08:58:44.277Z,21.33
2022-08-27T09:01:14.415Z,22.10
2022-08-27T09:03:46.440Z,22.52
2022-08-27T09:06:20.473Z,23.83
2022-08-27T09:08:49.743Z,21.40
2022-08-27T09:11:23.196Z,19.45
2022-08-27T09:13:53.747Z,22.38
2022-08-27T09:16:23.357Z,19.38
2022-08-27T09:18:54.617Z,19.55
2022-08-27T09:21:33.805Z,19.85
2022-08-27T09:24:08.374Z,19.60
2022-08-27T09:26:39.120Z,24.25
2022-08-27T09:29:20.303Z,21.17
2022-08-27T09:31:55.815Z,17.05
2022-08-27T09:34:27.599Z,18.17
2022-08-27T09:37:01.370Z,18.52
2022-08-27T09:39:34.529Z,17.45
2022-08-27T09:42:04.556Z,17.85
2022-08-27T09:44:34.060Z,16.35
2022-08-27T09:47:04.173Z,13.60
2022-08-27T09:49:38.718Z,15.55
2022-08-27T09:52:08.058Z,16.50
2022-08-27T09:54:42.259Z,18.33
2022-08-27T09:57:12.666Z,12.55
2022-08-27T09:59:43.316Z,11.63
2022-08-27T10:02:16.855Z,13.60
2022-08-27T10:04:51.342Z,23.25
2022-08-27T10:07:25.510Z,13.95
2022-08-27T10:09:57.231Z,18.85
2022-08-27T10:12:35.804Z,13.63
2022-08-27T10:15:06.468Z,14.93
2022-08-27T10:17:40.648Z,11.55
2022-08-27T10:20:17.256Z,14.25
2022-08-27T10:22:58.282Z,12.05
2022-08-27T10:25:31.204Z,12.27
2022-08-27T10:28:06.273Z,11.93
2022-08-27T10:30:41.619Z,12.32
2022-08-27T10:33:18.248Z,10.38
2022-08-27T10:36:01.015Z,11.10
2022-08-27T10:38:35.096Z,12.52
2022-08-27T10:41:05.725Z,11.95
2022-08-27T10:43:42.702Z,11.40
2022-08-27T10:46:26.294Z,11.32
2022-08-27T10:48:58.699Z,16.45
2022-08-27T10:51:33.070Z,12.10
2022-08-27T10:54:05.014Z,12.35
2022-08-27T10:56:38.338Z,12.48
2022-08-27T10:59:12.601Z,13.05
2022-08-27T11:01:49.515Z,12.30
2022-08-27T11:04:22.446Z,13.90
2022-08-27T11:06:58.242Z,10.60
2022-08-27T11:09:35.274Z,11.88
2022-08-27T11:12:15.034Z,11.60
2022-08-27T11:14:48.080Z,10.43
2022-08-27T11:17:19.559Z,12.38
2022-08-27T11:19:50.573Z,10.80
2022-08-27T11:22:28.089Z,11.77
2022-08-27T11:24:59.070Z,13.25
2022-08-27T11:27:31.965Z,12.73
2022-08-27T11:30:07.338Z,14.32
2022-08-27T11:32:47.336Z,9.82
2022-08-27T11:35:20.530Z,14.10
2022-08-27T11:38:20.379Z,12.15
2022-08-27T11:41:00.564Z,12.98
2022-08-27T11:43:35.072Z,12.40
2022-08-27T11:46:06.208Z,11.70
2022-08-27T11:48:39.770Z,11.30
2022-08-27T11:51:10.320Z,11.85
2022-08-27T11:53:52.042Z,12.73
2022-08-27T11:56:37.243Z,12.00
2022-08-27T11:59:22.155Z,10.98
2022-08-27T12:01:54.157Z,10.90
2022-08-27T12:04:34.369Z,13.00
2022-08-27T12:07:06.598Z,9.68
2022-08-27T12:09:52.085Z,12.32
2022-08-27T12:12:24.080Z,11.82
2022-08-27T12:14:56.004Z,12.05
2022-08-27T12:17:28.834Z,13.35
2022-08-27T12:20:10.389Z,13.00
2022-08-27T12:23:11.965Z,16.05
2022-08-27T12:25:42.625Z,15.13
2022-08-27T12:28:14.725Z,10.38
2022-08-27T12:30:52.248Z,11.18
2022-08-27T12:33:28.435Z,11.77
2022-08-27T12:36:05.147Z,11.02
2022-08-27T12:38:43.828Z,12.10
2022-08-27T12:41:28.561Z,15.77
2022-08-27T12:44:11.066Z,13.77
2022-08-27T12:46:48.318Z,10.40
2022-08-27T12:49:39.009Z,8.98
2022-08-27T12:52:30.452Z,9.98
2022-08-27T12:55:11.777Z,11.88
2022-08-27T12:57:50.681Z,9.73
2022-08-27T13:00:26.355Z,9.63
2022-08-27T13:03:23.672Z,10.75
2022-08-27T13:05:57.231Z,11.68
2022-08-27T13:08:29.150Z,10.95
2022-08-27T13:10:59.454Z,10.85
2022-08-27T13:13:29.773Z,10.05
2022-08-27T13:16:00.803Z,8.35
2022-08-27T13:18:30.657Z,9.43
2022-08-27T13:21:05.102Z,12.98
2022-08-27T13:23:35.547Z,9.98
2022-08-27T13:26:10.079Z,10.35
2022-08-27T13:28:43.076Z,11.98
2022-08-27T13:31:12.977Z,10.50
2022-08-27T13:33:42.773Z,10.85
2022-08-27T13:36:12.539Z,11.63
2022-08-27T13:38:49.757Z,9.30
2022-08-27T13:41:26.553Z,10.82
2022-08-27T13:43:59.562Z,15.73
2022-08-27T13:46:34.277Z,11.75
2022-08-27T13:49:03.543Z,10.73
2022-08-27T13:51:35.081Z,12.35
2022-08-27T13:54:13.322Z,12.95
2022-08-27T13:56:57.716Z,9.07
2022-08-27T13:59:30.688Z,10.48
2022-08-27T14:02:02.539Z,11.45
2022-08-27T14:04:39.949Z,12.20
2022-08-27T14:07:13.854Z,9.52
2022-08-27T14:09:54.519Z,10.13
2022-08-27T14:12:33.364Z,10.18
2022-08-27T14:15:20.861Z,10.88
2022-08-27T14:17:50.612Z,10.50
2022-08-27T14:20:23.622Z,11.90
2022-08-27T14:22:53.033Z,11.27
2022-08-27T14:25:23.046Z,11.88
2022-08-27T14:27:54.810Z,10.75
2022-08-27T14:30:29.965Z,8.90
2022-08-27T14:33:00.604Z,12.20
2022-08-27T14:35:31.219Z,12.27
2022-08-27T14:38:01.936Z,9.95
2022-08-27T14:40:31.505Z,11.18
2022-08-27T14:43:02.449Z,12.45
2022-08-27T14:45:33.484Z,10.65
2022-08-27T14:48:02.972Z,11.93
2022-08-27T14:50:31.956Z,11.20
2022-08-27T14:53:00.827Z,11.73
2022-08-27T14:55:31.496Z,11.27
2022-08-27T14:58:00.411Z,9.27
2022-08-27T15:00:30.583Z,11.27
2022-08-27T15:03:01.124Z,10.00
2022-08-27T15:05:30.326Z,11.00
2022-08-27T15:08:00.987Z,9.80
2022-08-27T15:10:30.026Z,14.43
2022-08-27T15:12:59.931Z,9.82
2022-08-27T15:15:28.908Z,10.05
2022-08-27T15:17:58.015Z,9.82
2022-08-27T15:20:29.163Z,11.43
2022-08-27T15:22:58.985Z,8.43
2022-08-27T15:25:30.974Z,12.55
2022-08-27T15:28:01.072Z,12.43
2022-08-27T15:30:30.954Z,10.55
2022-08-27T15:33:00.625Z,10.25
2022-08-27T15:35:32.659Z,10.45
2022-08-27T15:38:03.199Z,10.23
2022-08-27T15:40:36.067Z,10.27
2022-08-27T15:43:07.591Z,10.27
2022-08-27T15:45:37.394Z,10.07
2022-08-27T15:48:08.253Z,11.50
2022-08-27T15:50:39.298Z,12.35
2022-08-27T15:53:10.005Z,11.13
2022-08-27T15:55:40.093Z,11.70
2022-08-27T15:58:10.846Z,9.80
2022-08-27T16:00:40.777Z,13.13
2022-08-27T16:03:13.422Z,10.38
2022-08-27T16:05:46.188Z,11.50
2022-08-27T16:08:15.558Z,12.80
2022-08-27T16:10:44.586Z,12.10
2022-08-27T16:13:13.724Z,12.25
2022-08-27T16:15:43.259Z,10.40
2022-08-27T16:18:13.414Z,10.95
2022-08-27T16:20:43.790Z,11.75
2022-08-27T16:23:13.919Z,9.68
2022-08-27T16:25:42.942Z,12.15
2022-08-27T16:28:13.155Z,10.75
2022-08-27T16:30:42.432Z,10.23
2022-08-27T16:33:12.489Z,11.55
2022-08-27T16:35:43.183Z,11.60
2022-08-27T16:38:13.059Z,11.98
2022-08-27T16:40:44.799Z,13.30
2022-08-27T16:43:16.920Z,10.45
2022-08-27T16:45:46.297Z,11.18
2022-08-27T16:48:32.852Z,9.68
2022-08-27T16:51:05.101Z,11.75
2022-08-27T16:53:39.083Z,9.93
2022-08-27T16:56:09.246Z,10.45
2022-08-27T16:58:40.910Z,13.68
2022-08-27T17:01:11.728Z,13.85
2022-08-27T17:04:06.806Z,13.00
2022-08-27T17:06:34.533Z,11.30
2022-08-27T17:09:07.721Z,17.25
2022-08-27T17:11:40.631Z,12.20
2022-08-27T17:14:12.356Z,12.75
2022-08-27T17:16:43.560Z,14.88
2022-08-27T17:19:17.017Z,14.27
2022-08-27T17:21:48.698Z,14.70
2022-08-27T17:24:18.270Z,15.98
2022-08-27T17:26:47.921Z,13.85
2022-08-27T17:29:17.313Z,13.75
2022-08-27T17:31:46.435Z,11.63
2022-08-27T17:34:18.044Z,12.70
2022-08-27T17:36:48.860Z,15.45
2022-08-27T17:39:18.947Z,87.15
2022-08-27T17:41:49.639Z,70.47
2022-08-27T17:44:21.483Z,43.78
2022-08-27T17:46:50.936Z,29.05
2022-08-27T17:49:20.257Z,21.13
2022-08-27T17:51:51.770Z,16.50
2022-08-27T17:54:29.251Z,17.10
2022-08-27T17:56:58.240Z,18.67
2022-08-27T17:59:27.621Z,20.45
2022-08-27T18:01:57.188Z,19.55
2022-08-27T18:04:26.964Z,19.67
2022-08-27T18:06:57.664Z,17.70
2022-08-27T18:09:26.754Z,19.55
2022-08-27T18:11:56.507Z,21.17
2022-08-27T18:14:25.645Z,18.05
2022-08-27T18:16:55.225Z,21.40
2022-08-27T18:19:24.709Z,28.65
2022-08-27T18:21:54.123Z,30.58
2022-08-27T18:24:25.330Z,31.65
2022-08-27T18:26:54.768Z,29.08
2022-08-27T18:29:24.313Z,24.60
2022-08-27T18:31:53.855Z,29.42
2022-08-27T18:34:23.484Z,24.30
2022-08-27T18:36:52.871Z,25.65
2022-08-27T18:39:22.085Z,31.85
2022-08-27T18:41:56.760Z,29.80
2022-08-27T18:44:25.876Z,31.30
2022-08-27T18:46:55.194Z,29.88
2022-08-27T18:49:27.003Z,31.85
2022-08-27T18:51:56.244Z,30.88
2022-08-27T18:54:27.552Z,25.92
2022-08-27T18:56:58.335Z,26.02
2022-08-27T18:59:27.549Z,26.90
2022-08-27T19:01:57.583Z,26.33
2022-08-27T19:04:27.656Z,31.35
2022-08-27T19:06:57.378Z,41.17
2022-08-27T19:09:27.407Z,45.22
2022-08-27T19:11:58.417Z,45.50
2022-08-27T19:14:27.914Z,48.13
2022-08-27T19:16:57.473Z,60.03
2022-08-27T19:19:27.619Z,52.88
2022-08-27T19:21:56.658Z,44.78
2022-08-27T19:24:30.117Z,40.92
2022-08-27T19:27:07.433Z,40.10
2022-08-27T19:29:36.516Z,47.47
2022-08-27T19:32:05.856Z,36.15
2022-08-27T19:34:35.501Z,37.63
2022-08-27T19:37:05.015Z,36.72
2022-08-27T19:39:34.923Z,41.78
2022-08-27T19:42:04.359Z,39.63
2022-08-27T19:44:35.105Z,37.10
2022-08-27T19:47:04.850Z,31.67
2022-08-27T19:49:34.293Z,28.73
2022-08-27T19:52:08.131Z,27.05
2022-08-27T19:54:56.894Z,35.35
2022-08-27T19:57:27.042Z,27.63
2022-08-27T19:59:57.555Z,34.63
2022-08-27T20:02:26.787Z,38.60
2022-08-27T20:05:16.532Z,32.85
2022-08-27T20:07:45.365Z,58.85
2022-08-27T20:10:16.471Z,32.72
2022-08-27T20:12:46.063Z,66.45
2022-08-27T20:15:16.806Z,39.40
2022-08-27T20:17:47.272Z,44.38
2022-08-27T20:20:22.115Z,38.67
2022-08-27T20:22:51.390Z,116.30
2022-08-27T20:25:21.308Z,128.13
2022-08-27T20:27:50.429Z,122.90
2022-08-27T20:30:22.974Z,125.80
2022-08-27T20:32:52.695Z,104.85
2022-08-27T20:35:22.332Z,77.88
2022-08-27T20:37:51.770Z,82.63
2022-08-27T20:40:22.753Z,57.88
2022-08-27T20:42:52.384Z,84.57
2022-08-27T20:45:23.288Z,81.40
2022-08-27T20:47:53.931Z,91.35
2022-08-27T20:50:23.663Z,94.15
2022-08-27T20:52:53.620Z,87.93
2022-08-27T20:55:24.340Z,86.20
2022-08-27T20:58:11.129Z,73.72
2022-08-27T21:00:43.464Z,51.97
2022-08-27T21:03:13.903Z,35.63
2022-08-27T21:05:47.373Z,36.70
2022-08-27T21:08:17.337Z,38.40
2022-08-27T21:10:46.917Z,28.25
2022-08-27T21:13:16.887Z,27.20
2022-08-27T21:15:47.643Z,29.27
2022-08-27T21:18:16.932Z,30.15
2022-08-27T21:20:46.180Z,26.80
2022-08-27T21:23:15.837Z,27.35
2022-08-27T21:25:45.027Z,27.52
2022-08-27T21:28:14.277Z,28.73
2022-08-27T21:30:45.406Z,29.13
2022-08-27T21:33:16.033Z,28.80
2022-08-27T21:35:45.507Z,30.08
2022-08-27T21:38:14.772Z,29.55
2022-08-27T21:40:44.239Z,25.88
2022-08-27T21:43:13.477Z,22.95
2022-08-27T21:45:43.226Z,29.55
2022-08-27T21:48:12.732Z,30.48
2022-08-27T21:50:43.772Z,25.70
2022-08-27T21:53:13.076Z,28.50
2022-08-27T21:55:42.302Z,41.28
2022-08-27T21:58:11.743Z,47.92
2022-08-27T22:00:43.957Z,47.63
2022-08-27T22:03:14.959Z,41.72
2022-08-27T22:05:46.466Z,36.13
2022-08-27T22:08:16.715Z,39.40
2022-08-27T22:10:46.704Z,37.45
2022-08-27T22:13:16.017Z,35.50
2022-08-27T22:15:45.493Z,31.92
2022-08-27T22:18:14.835Z,27.52
2022-08-27T22:20:46.562Z,31.55
2022-08-27T22:23:16.148Z,28.90
2022-08-27T22:25:45.511Z,25.90
2022-08-27T22:28:15.438Z,28.45
2022-08-27T22:30:45.297Z,27.75
2022-08-27T22:33:14.638Z,19.98
2022-08-27T22:35:44.000Z,19.80
2022-08-27T22:38:14.814Z,24.60
2022-08-27T22:40:44.431Z,20.98
2022-08-27T22:43:14.049Z,25.98
2022-08-27T22:45:43.437Z,25.77
2022-08-27T22:48:12.945Z,25.17
2022-08-27T22:50:42.066Z,25.88
2022-08-27T22:58:10.170Z,25.50
2022-08-27T23:00:40.551Z,24.42
2022-08-27T23:03:11.728Z,27.17
2022-08-27T23:05:42.117Z,25.83
2022-08-27T23:08:12.171Z,27.23
2022-08-27T23:10:42.081Z,28.20
2022-08-27T23:13:13.097Z,27.02
2022-08-27T23:15:42.916Z,24.70
2022-08-27T23:18:12.234Z,25.10
2022-08-27T23:20:41.732Z,24.88
2022-08-27T23:23:11.039Z,24.98
2022-08-27T23:25:58.010Z,22.65
2022-08-27T23:28:29.676Z,24.17
2022-08-27T23:30:58.975Z,23.75
2022-08-27T23:33:29.164Z,24.00
2022-08-27T23:35:58.520Z,21.65
2022-08-27T23:38:27.693Z,20.35
2022-08-27T23:40:56.929Z,25.95
2022-08-27T23:43:26.570Z,20.02
2022-08-27T23:45:57.550Z,21.13
2022-08-27T23:48:27.849Z,28.38
2022-08-27T23:50:56.969Z,22.05
2022-08-27T23:53:26.697Z,20.95
2022-08-27T23:55:55.662Z,23.40
